Sunday, May 27, 2018, 9:28 AM EDT
Back to Local

KFVE, Northern Aroostook Regional

Location: Saint Agatha, ME, United States Lat: 47.283
Local Time: 9:28 AM EDT (13:28 GMT) Lon: -68.3
Time Zone: US/Eastern Elev: 987 ft

Show me the last for .
Show Coded

Time T Td Feel RH Dir Speed Gust Alt SLP Vis Weather Sky Remarks
2018-05-27 08:53 53 36 - 52 170° 7 - 30.26 30.27 10 CLR None
2018-05-27 07:53 49 34 46 56 150° 7 - 30.26 30.27 10 CLR 6-hr Min Temp (8am): 42.1°F
6-hr Max Temp (8am): 48.9°F
2018-05-27 06:53 46 30 43 53 120° 6 - 30.25 30.25 10 CLR None
2018-05-27 05:53 45 28 41 51 100° 7 - 30.23 30.24 10 CLR None
2018-05-27 04:53 44 27 40 50 90° 7 - 30.22 30.22 10 CLR None
2018-05-27 03:53 43 27 41 52 130° 3 - 30.21 30.21 10 CLR None
2018-05-27 02:53 45 27 44 48 40° 3 - 30.19 30.19 10 CLR None
2018-05-27 01:53 47 26 - 43 - Calm - 30.17 30.17 10 CLR 6-hr Min Temp (2am): 46.0°F
6-hr Max Temp (2am): 55.9°F
2018-05-27 00:53 48 26 46 42 60° 5 - 30.15 30.15 10 CLR 24-hr Min Temp (1am): 48.0°F
24-hr Max Temp (1am): 64.9°F
2018-05-26 23:53 49 26 47 40 30° 6 - 30.13 30.13 10 CLR None
2018-05-26 22:53 49 26 45 40 40° 8 - 30.11 30.11 10 CLR None
2018-05-26 21:53 50 25 46 37 30° 9 - 30.09 30.09 10 CLR None
2018-05-26 20:53 52 25 - 34 30° 7 - 30.06 30.06 10 CLR None
2018-05-26 19:53 56 24 - 28 20° 7 - 30.03 30.02 10 CLR 6-hr Min Temp (8pm): 55.9°F
6-hr Max Temp (8pm): 64.9°F
2018-05-26 18:53 58 24 - 26 30° 13 21 29.99 29.99 10 CLR None
2018-05-26 17:53 61 26 - 26 10° 13 23 29.95 29.95 10 CLR None
2018-05-26 16:53 62 27 - 26 360° 16 28 29.91 29.91 10 CLR None
2018-05-26 15:53 63 29 - 27 350° 17 29 29.88 29.88 10 CLR None
2018-05-26 14:53 63 30 - 28 350° 18 28 29.86 29.85 10 CLR Peak wind: 32 mph (28 kts) from 360° at 35 min
2018-05-26 13:53 63 30 - 28 350° 15 29 29.83 29.82 10 CLR Peak wind: 33 mph (29 kts) from 330° at 18 min
6-hr Min Temp (2pm): 55.0°F
6-hr Max Temp (2pm): 63.0°F
2018-05-26 12:53 63 32 - 31 360° 17 30 29.80 29.79 10 CLR Peak wind: 31 mph (27 kts) from 320° at 39 min
2018-05-26 11:53 61 34 - 36 310° 17 - 29.78 29.77 10 CLR Peak wind: 29 mph (26 kts) from 10° at 40 min
2018-05-26 10:53 61 34 - 36 310° 17 26 29.76 29.75 10 CLR None
2018-05-26 09:53 61 37 - 40 360° 14 21 29.74 29.73 10 CLR None

Support USWX by starting your Amazon purchase here.